createdAt,value
2022-11-03T00:00:49.622Z,1017.44
2022-11-03T00:01:53.992Z,1017.44
2022-11-03T00:02:58.152Z,1017.46
2022-11-03T00:04:02.278Z,1017.44
2022-11-03T00:05:06.576Z,1017.42
2022-11-03T00:06:10.862Z,1017.35
2022-11-03T00:07:15.103Z,1017.35
2022-11-03T00:08:19.264Z,1017.37
2022-11-03T00:09:23.404Z,1017.39
2022-11-03T00:10:27.758Z,1017.40
2022-11-03T00:11:32.001Z,1017.39
2022-11-03T00:12:36.177Z,1017.39
2022-11-03T00:13:40.439Z,1017.33
2022-11-03T00:14:44.514Z,1017.30
2022-11-03T00:15:48.692Z,1017.32
2022-11-03T00:16:52.964Z,1017.33
2022-11-03T00:17:57.297Z,1017.34
2022-11-03T00:19:01.545Z,1017.32
2022-11-03T00:20:05.695Z,1017.31
2022-11-03T00:21:10.040Z,1017.32
2022-11-03T00:22:14.071Z,1017.34
2022-11-03T00:23:18.423Z,1017.33
2022-11-03T00:24:22.702Z,1017.32
2022-11-03T00:25:26.962Z,1017.33
2022-11-03T00:26:31.161Z,1017.32
2022-11-03T00:27:35.396Z,1017.32
2022-11-03T00:28:39.702Z,1017.31
2022-11-03T00:29:43.875Z,1017.27
2022-11-03T00:30:48.215Z,1017.25
2022-11-03T00:31:52.388Z,1017.23
2022-11-03T00:32:56.678Z,1017.25
2022-11-03T00:34:00.868Z,1017.24
2022-11-03T00:35:05.171Z,1017.24
2022-11-03T00:36:09.446Z,1017.25
2022-11-03T00:37:13.671Z,1017.27
2022-11-03T00:38:17.927Z,1017.26
2022-11-03T00:39:22.172Z,1017.27
2022-11-03T00:40:26.368Z,1017.28
2022-11-03T00:41:30.566Z,1017.27
2022-11-03T00:42:34.771Z,1017.27
2022-11-03T00:43:39.082Z,1017.26
2022-11-03T00:44:43.359Z,1017.28
2022-11-03T00:45:47.654Z,1017.26
2022-11-03T00:46:54.805Z,1017.23
2022-11-03T00:47:58.170Z,1017.25
2022-11-03T00:49:02.277Z,1017.24
2022-11-03T00:50:06.491Z,1017.26
2022-11-03T00:51:10.695Z,1017.26
2022-11-03T00:52:14.900Z,1017.27
2022-11-03T00:53:19.131Z,1017.28
2022-11-03T00:54:23.414Z,1017.25
2022-11-03T00:55:27.651Z,1017.28
2022-11-03T00:56:31.918Z,1017.26
2022-11-03T00:57:36.189Z,1017.22
2022-11-03T00:58:40.490Z,1017.19
2022-11-03T00:59:44.775Z,1017.16
2022-11-03T01:00:48.973Z,1017.18
2022-11-03T01:01:53.477Z,1017.19
2022-11-03T01:02:57.437Z,1017.22
2022-11-03T01:04:01.637Z,1017.21
2022-11-03T01:05:05.931Z,1017.16
2022-11-03T01:06:10.191Z,1017.16
2022-11-03T01:07:14.487Z,1017.17
2022-11-03T01:08:20.407Z,1017.13
2022-11-03T01:09:22.844Z,1017.12
2022-11-03T01:10:27.173Z,1017.08
2022-11-03T01:11:31.422Z,1017.06
2022-11-03T01:12:35.681Z,1017.06
2022-11-03T01:13:39.958Z,1017.07
2022-11-03T01:14:44.285Z,1017.06
2022-11-03T01:15:48.534Z,1017.01
2022-11-03T01:16:52.711Z,1016.96
2022-11-03T01:17:56.962Z,1016.95
2022-11-03T01:19:01.173Z,1016.93
2022-11-03T01:20:05.481Z,1016.90
2022-11-03T01:21:09.667Z,1016.89
2022-11-03T01:22:13.847Z,1016.91
2022-11-03T01:23:18.097Z,1016.90
2022-11-03T01:24:22.398Z,1016.91
2022-11-03T01:25:26.681Z,1016.91
2022-11-03T01:26:30.835Z,1016.88
2022-11-03T01:27:35.152Z,1016.88
2022-11-03T01:28:39.312Z,1016.87
2022-11-03T01:29:43.519Z,1016.90
2022-11-03T01:30:47.827Z,1016.90
2022-11-03T01:31:52.039Z,1016.84
2022-11-03T01:32:56.178Z,1016.85
2022-11-03T01:34:00.362Z,1016.83
2022-11-03T01:35:04.556Z,1016.80
2022-11-03T01:36:08.628Z,1016.79
2022-11-03T01:37:12.849Z,1016.79
2022-11-03T01:38:17.039Z,1016.81
2022-11-03T01:39:21.238Z,1016.82
2022-11-03T01:40:25.432Z,1016.84
2022-11-03T01:41:29.659Z,1016.82
2022-11-03T01:42:33.861Z,1016.79
2022-11-03T01:43:38.151Z,1016.78
2022-11-03T01:44:42.398Z,1016.77
2022-11-03T01:45:46.568Z,1016.75
2022-11-03T01:46:50.818Z,1016.71
2022-11-03T01:47:55.006Z,1016.68
2022-11-03T01:48:59.172Z,1016.63
2022-11-03T01:50:03.341Z,1016.57
2022-11-03T01:51:07.585Z,1016.55
2022-11-03T01:52:11.793Z,1016.54
2022-11-03T01:53:15.984Z,1016.49
2022-11-03T01:54:20.182Z,1016.45
2022-11-03T01:55:24.425Z,1016.41
2022-11-03T01:56:28.656Z,1016.39
2022-11-03T01:57:32.865Z,1016.40
2022-11-03T01:58:37.065Z,1016.35
2022-11-03T01:59:41.449Z,1016.32
2022-11-03T02:00:45.820Z,1016.30
2022-11-03T02:01:50.012Z,1016.29
2022-11-03T02:02:54.112Z,1016.32
2022-11-03T02:03:58.395Z,1016.24
2022-11-03T02:05:02.590Z,1016.19
2022-11-03T02:06:06.874Z,1016.21
2022-11-03T02:07:11.058Z,1016.17
2022-11-03T02:08:15.264Z,1016.14
2022-11-03T02:09:19.569Z,1016.13
2022-11-03T02:10:23.820Z,1016.11
2022-11-03T02:11:27.960Z,1016.16
2022-11-03T02:12:32.130Z,1016.17
2022-11-03T02:13:36.323Z,1016.15
2022-11-03T02:14:40.615Z,1016.08
2022-11-03T02:15:44.876Z,1016.09
2022-11-03T02:16:49.046Z,1016.08
2022-11-03T02:17:53.228Z,1016.09
2022-11-03T02:18:57.484Z,1016.10
2022-11-03T02:20:01.649Z,1016.08
2022-11-03T02:21:05.984Z,1016.07
2022-11-03T02:22:10.239Z,1016.07
2022-11-03T02:23:14.495Z,1016.05
2022-11-03T02:24:18.670Z,1016.02
2022-11-03T02:25:22.869Z,1015.98
2022-11-03T02:26:27.067Z,1015.96
2022-11-03T02:27:31.270Z,1015.95
2022-11-03T02:28:35.573Z,1015.98
2022-11-03T02:29:39.818Z,1015.95
2022-11-03T02:30:43.972Z,1015.93
2022-11-03T02:31:48.207Z,1015.92
2022-11-03T02:32:52.487Z,1015.90
2022-11-03T02:33:56.616Z,1015.87
2022-11-03T02:35:00.810Z,1015.86
2022-11-03T02:36:05.008Z,1015.86
2022-11-03T02:37:09.204Z,1015.84
2022-11-03T02:38:13.499Z,1015.83
2022-11-03T02:39:17.790Z,1015.81
2022-11-03T02:40:22.049Z,1015.80
2022-11-03T02:41:26.229Z,1015.76
2022-11-03T02:42:30.526Z,1015.76
2022-11-03T02:43:34.691Z,1015.76
2022-11-03T02:44:38.898Z,1015.74
2022-11-03T02:45:43.214Z,1015.73
2022-11-03T02:46:47.331Z,1015.73
2022-11-03T02:47:51.618Z,1015.74
2022-11-03T02:48:55.781Z,1015.71
2022-11-03T02:50:00.343Z,1015.73
2022-11-03T02:51:04.381Z,1015.72
2022-11-03T02:52:08.503Z,1015.72
2022-11-03T02:53:12.732Z,1015.73
2022-11-03T02:54:16.926Z,1015.70
2022-11-03T02:55:21.230Z,1015.72
2022-11-03T02:56:25.531Z,1015.75
2022-11-03T02:57:29.664Z,1015.77
2022-11-03T02:58:33.850Z,1015.76
2022-11-03T02:59:38.067Z,1015.76
2022-11-03T03:00:42.292Z,1015.75
2022-11-03T03:01:46.687Z,1015.73
2022-11-03T03:02:50.677Z,1015.75
2022-11-03T03:03:54.926Z,1015.74
2022-11-03T03:04:59.112Z,1015.76
2022-11-03T03:06:03.433Z,1015.77
2022-11-03T03:07:07.656Z,1015.78
2022-11-03T03:08:11.809Z,1015.77
2022-11-03T03:09:16.042Z,1015.74
2022-11-03T03:10:20.348Z,1015.73
2022-11-03T03:11:24.542Z,1015.71
2022-11-03T03:12:28.732Z,1015.75
2022-11-03T03:13:32.952Z,1015.76
2022-11-03T03:14:37.188Z,1015.77
2022-11-03T03:15:44.511Z,1015.77
2022-11-03T03:16:47.722Z,1015.75
2022-11-03T03:17:52.015Z,1015.70
2022-11-03T03:18:56.162Z,1015.70
2022-11-03T03:20:00.398Z,1015.70
2022-11-03T03:21:04.620Z,1015.69
2022-11-03T03:22:08.791Z,1015.71
2022-11-03T03:23:13.415Z,1015.73
2022-11-03T03:24:17.168Z,1015.74
2022-11-03T03:25:21.440Z,1015.73
2022-11-03T03:26:25.720Z,1015.73
2022-11-03T03:27:29.977Z,1015.72
2022-11-03T03:28:34.115Z,1015.73
2022-11-03T03:29:38.341Z,1015.72
2022-11-03T03:30:42.632Z,1015.73
2022-11-03T03:31:46.799Z,1015.72
2022-11-03T03:32:51.084Z,1015.75
2022-11-03T03:34:04.474Z,1015.72
2022-11-03T03:34:59.362Z,1015.72
2022-11-03T03:36:03.652Z,1015.73
2022-11-03T03:37:07.939Z,1015.68
2022-11-03T03:38:12.147Z,1015.67
2022-11-03T03:39:16.467Z,1015.67
2022-11-03T03:40:20.589Z,1015.63
2022-11-03T03:41:24.825Z,1015.59
2022-11-03T03:42:29.155Z,1015.59
2022-11-03T03:43:33.375Z,1015.59
2022-11-03T03:44:37.681Z,1015.60
2022-11-03T03:45:41.847Z,1015.60
2022-11-03T03:46:46.163Z,1015.60
2022-11-03T03:47:54.910Z,1015.61
2022-11-03T03:48:54.536Z,1015.60
2022-11-03T03:49:58.742Z,1015.59
2022-11-03T03:51:03.055Z,1015.57
2022-11-03T03:52:07.293Z,1015.59
2022-11-03T03:53:11.553Z,1015.60
2022-11-03T03:54:15.719Z,1015.60
2022-11-03T03:55:20.001Z,1015.59
2022-11-03T03:56:24.234Z,1015.59
2022-11-03T03:57:28.388Z,1015.59
2022-11-03T03:58:32.564Z,1015.57
2022-11-03T03:59:36.784Z,1015.51
2022-11-03T04:00:41.011Z,1015.46
2022-11-03T04:01:45.554Z,1015.46
2022-11-03T04:02:49.566Z,1015.46
2022-11-03T04:03:53.837Z,1015.44
2022-11-03T04:04:57.978Z,1015.43
2022-11-03T04:06:02.199Z,1015.44
2022-11-03T04:07:06.408Z,1015.45
2022-11-03T04:08:10.712Z,1015.42
2022-11-03T04:09:14.849Z,1015.43
2022-11-03T04:10:19.052Z,1015.38
2022-11-03T04:11:23.383Z,1015.37
2022-11-03T04:12:27.521Z,1015.34
2022-11-03T04:13:31.825Z,1015.30
2022-11-03T04:14:35.970Z,1015.25
2022-11-03T04:15:40.288Z,1015.23
2022-11-03T04:16:44.485Z,1015.24
2022-11-03T04:18:52.873Z,1015.20
2022-11-03T04:19:57.089Z,1015.17
2022-11-03T04:21:01.426Z,1015.15
2022-11-03T04:22:05.701Z,1015.16
2022-11-03T04:23:09.963Z,1015.14
2022-11-03T04:24:14.198Z,1015.13
2022-11-03T04:25:18.453Z,1015.13
2022-11-03T04:26:22.703Z,1015.13
2022-11-03T04:27:26.981Z,1015.13
2022-11-03T04:28:31.213Z,1015.19
2022-11-03T04:29:35.488Z,1015.22
2022-11-03T04:30:39.692Z,1015.25
2022-11-03T04:31:43.850Z,1015.23
2022-11-03T04:32:48.138Z,1015.27
2022-11-03T04:33:52.286Z,1015.25
2022-11-03T04:34:56.452Z,1015.26
2022-11-03T04:36:00.685Z,1015.25
2022-11-03T04:37:05.022Z,1015.25
2022-11-03T04:38:09.348Z,1015.24
2022-11-03T04:39:13.412Z,1015.26
2022-11-03T04:40:17.604Z,1015.28
2022-11-03T04:41:21.807Z,1015.28
2022-11-03T04:42:26.137Z,1015.26
2022-11-03T04:43:30.342Z,1015.30
2022-11-03T04:44:34.614Z,1015.27
2022-11-03T04:45:38.899Z,1015.27
2022-11-03T04:46:43.182Z,1015.26
2022-11-03T04:47:47.314Z,1015.25
2022-11-03T04:48:51.601Z,1015.23
2022-11-03T04:49:55.790Z,1015.24
2022-11-03T04:51:00.114Z,1015.23
2022-11-03T04:52:04.345Z,1015.23
2022-11-03T04:53:08.955Z,1015.20
2022-11-03T04:54:12.757Z,1015.19
2022-11-03T04:55:16.979Z,1015.21
2022-11-03T04:56:21.286Z,1015.23
2022-11-03T04:57:25.508Z,1015.25
2022-11-03T04:58:29.772Z,1015.26
2022-11-03T04:59:33.972Z,1015.24
2022-11-03T05:00:38.206Z,1015.21
2022-11-03T05:01:42.702Z,1015.20
2022-11-03T05:02:49.058Z,1015.17
2022-11-03T05:03:50.950Z,1015.18
2022-11-03T05:04:55.216Z,1015.18
2022-11-03T05:05:59.384Z,1015.15
2022-11-03T05:07:03.692Z,1015.12
2022-11-03T05:08:07.849Z,1015.10
2022-11-03T05:09:12.142Z,1015.08
2022-11-03T05:10:16.336Z,1015.05
2022-11-03T05:11:20.531Z,1015.05
2022-11-03T05:12:24.722Z,1015.06
2022-11-03T05:13:28.899Z,1015.04
2022-11-03T05:14:33.110Z,1015.02
2022-11-03T05:15:37.338Z,1015.05
2022-11-03T05:16:41.518Z,1015.05
2022-11-03T05:17:45.740Z,1015.04
2022-11-03T05:18:49.944Z,1015.00
2022-11-03T05:19:54.117Z,1014.96
2022-11-03T05:20:58.387Z,1014.89
2022-11-03T05:22:02.537Z,1014.85
2022-11-03T05:23:07.274Z,1014.77
2022-11-03T05:24:11.092Z,1014.73
2022-11-03T05:25:15.230Z,1014.68
2022-11-03T05:26:19.438Z,1014.67
2022-11-03T05:27:23.729Z,1014.65
2022-11-03T05:28:27.970Z,1014.66
2022-11-03T05:29:32.255Z,1014.66
2022-11-03T05:30:36.450Z,1014.67
2022-11-03T05:31:40.723Z,1014.64
2022-11-03T05:32:44.791Z,1014.60
2022-11-03T05:33:49.106Z,1014.56
2022-11-03T05:34:53.271Z,1014.53
2022-11-03T05:35:57.558Z,1014.50
2022-11-03T05:37:01.822Z,1014.49
2022-11-03T05:38:06.395Z,1014.50
2022-11-03T05:39:10.184Z,1014.50
2022-11-03T05:40:14.475Z,1014.49
2022-11-03T05:41:18.742Z,1014.46
2022-11-03T05:42:23.021Z,1014.43
2022-11-03T05:43:27.144Z,1014.36
2022-11-03T05:44:31.391Z,1014.34
2022-11-03T05:45:35.592Z,1014.34
2022-11-03T05:46:39.780Z,1014.34
2022-11-03T05:47:44.013Z,1014.35
2022-11-03T05:48:48.192Z,1014.37
2022-11-03T05:49:52.472Z,1014.39
2022-11-03T05:50:56.620Z,1014.37
2022-11-03T05:52:00.919Z,1014.33
2022-11-03T05:53:05.157Z,1014.32
2022-11-03T05:54:09.427Z,1014.32
2022-11-03T05:55:13.574Z,1014.34
2022-11-03T05:56:17.854Z,1014.34
2022-11-03T05:57:22.026Z,1014.33
2022-11-03T05:58:26.219Z,1014.32
2022-11-03T05:59:30.420Z,1014.33
2022-11-03T06:00:34.643Z,1014.30
2022-11-03T06:01:38.914Z,1014.31
2022-11-03T06:02:43.168Z,1014.31
2022-11-03T06:03:47.267Z,1014.34
2022-11-03T06:04:51.457Z,1014.39
2022-11-03T06:05:55.767Z,1014.46
2022-11-03T06:06:59.998Z,1014.45
2022-11-03T06:08:04.513Z,1014.46
2022-11-03T06:09:08.432Z,1014.45
2022-11-03T06:10:12.482Z,1014.44
2022-11-03T06:11:16.726Z,1014.44
2022-11-03T06:12:21.039Z,1014.40
2022-11-03T06:13:25.287Z,1014.44
2022-11-03T06:14:29.417Z,1014.42
2022-11-03T06:15:33.779Z,1014.41
2022-11-03T06:16:37.855Z,1014.39
2022-11-03T06:17:42.146Z,1014.40
2022-11-03T06:18:46.296Z,1014.37
2022-11-03T06:19:50.626Z,1014.36
2022-11-03T06:20:54.741Z,1014.35
2022-11-03T06:21:58.931Z,1014.32
2022-11-03T06:23:03.342Z,1014.33
2022-11-03T06:24:07.410Z,1014.34
2022-11-03T06:25:11.575Z,1014.38
2022-11-03T06:26:15.871Z,1014.39
2022-11-03T06:27:20.032Z,1014.38
2022-11-03T06:28:24.236Z,1014.36
2022-11-03T06:29:28.524Z,1014.32
2022-11-03T06:30:32.711Z,1014.32
2022-11-03T06:31:36.939Z,1014.31
2022-11-03T06:32:41.106Z,1014.29
2022-11-03T06:33:45.427Z,1014.29
2022-11-03T06:34:49.580Z,1014.30
2022-11-03T06:35:53.878Z,1014.29
2022-11-03T06:36:57.888Z,1014.26
2022-11-03T06:38:02.137Z,1014.25
2022-11-03T06:39:06.474Z,1014.26
2022-11-03T06:40:10.732Z,1014.25
2022-11-03T06:41:15.020Z,1014.23
2022-11-03T06:42:19.155Z,1014.21
2022-11-03T06:43:23.346Z,1014.22
2022-11-03T06:44:27.640Z,1014.22
2022-11-03T06:45:31.789Z,1014.26
2022-11-03T06:46:36.030Z,1014.23
2022-11-03T06:47:40.210Z,1014.23
2022-11-03T06:48:44.449Z,1014.23
2022-11-03T06:49:48.693Z,1014.23
2022-11-03T06:50:52.847Z,1014.24
2022-11-03T06:51:57.063Z,1014.25
2022-11-03T06:53:01.224Z,1014.21
2022-11-03T06:54:05.469Z,1014.19
2022-11-03T06:55:12.324Z,1014.23
2022-11-03T06:56:13.843Z,1014.25
2022-11-03T06:57:18.154Z,1014.26
2022-11-03T06:58:22.286Z,1014.24
2022-11-03T06:59:26.606Z,1014.21
2022-11-03T07:00:35.725Z,1014.21
2022-11-03T07:01:35.197Z,1014.21
2022-11-03T07:02:39.220Z,1014.18
2022-11-03T07:03:43.307Z,1014.17
2022-11-03T07:04:47.548Z,1014.15
2022-11-03T07:05:51.844Z,1014.13
2022-11-03T07:06:56.027Z,1014.12
2022-11-03T07:08:00.330Z,1014.12
2022-11-03T07:09:04.488Z,1014.11
2022-11-03T07:10:08.837Z,1014.11
2022-11-03T07:11:13.001Z,1014.10
2022-11-03T07:12:17.303Z,1014.10
2022-11-03T07:13:21.453Z,1014.10
2022-11-03T07:14:25.690Z,1014.10
2022-11-03T07:15:29.985Z,1014.10
2022-11-03T07:16:34.146Z,1014.09
2022-11-03T07:17:38.375Z,1014.08
2022-11-03T07:18:42.548Z,1014.06
2022-11-03T07:19:46.727Z,1014.09
2022-11-03T07:20:50.919Z,1014.09
2022-11-03T07:21:55.158Z,1014.10
2022-11-03T07:22:59.360Z,1014.10
2022-11-03T07:24:03.601Z,1014.08
2022-11-03T07:25:07.799Z,1014.09
2022-11-03T07:26:12.113Z,1014.11
2022-11-03T07:27:16.255Z,1014.12
2022-11-03T07:28:20.497Z,1014.11
2022-11-03T07:29:24.715Z,1014.11
2022-11-03T07:30:29.038Z,1014.13
2022-11-03T07:31:33.182Z,1014.12
2022-11-03T07:32:37.410Z,1014.10
2022-11-03T07:33:41.594Z,1014.10
2022-11-03T07:34:45.823Z,1014.09
2022-11-03T07:36:55.868Z,1014.08
2022-11-03T07:37:58.629Z,1014.03
2022-11-03T07:39:02.767Z,1013.99
2022-11-03T07:40:07.105Z,1013.96
2022-11-03T07:41:11.331Z,1013.96
2022-11-03T07:42:15.572Z,1013.95
2022-11-03T07:43:19.705Z,1013.94
2022-11-03T07:44:24.012Z,1013.92
2022-11-03T07:45:28.195Z,1013.91
2022-11-03T07:46:32.436Z,1013.90
2022-11-03T07:47:36.724Z,1013.90
2022-11-03T07:48:40.790Z,1013.90
2022-11-03T07:49:45.217Z,1013.86
2022-11-03T07:50:49.477Z,1013.86
2022-11-03T07:51:53.643Z,1013.84
2022-11-03T07:52:57.838Z,1013.82
2022-11-03T07:54:02.189Z,1013.82
2022-11-03T07:55:06.378Z,1013.80
2022-11-03T07:56:10.695Z,1013.78
2022-11-03T07:57:14.802Z,1013.76
2022-11-03T07:58:19.028Z,1013.72
2022-11-03T07:59:26.275Z,1013.72
2022-11-03T08:00:29.516Z,1013.73
2022-11-03T08:01:34.007Z,1013.70
2022-11-03T08:02:38.145Z,1013.68
2022-11-03T08:03:42.194Z,1013.66
2022-11-03T08:04:46.440Z,1013.65
2022-11-03T08:05:50.765Z,1013.63
2022-11-03T08:06:54.901Z,1013.63
2022-11-03T08:07:59.153Z,1013.65
2022-11-03T08:09:03.349Z,1013.64
2022-11-03T08:10:07.588Z,1013.62
2022-11-03T08:11:11.811Z,1013.62
2022-11-03T08:12:16.156Z,1013.61
2022-11-03T08:13:20.283Z,1013.62
2022-11-03T08:14:24.525Z,1013.57
2022-11-03T08:15:28.772Z,1013.58
2022-11-03T08:16:33.130Z,1013.56
2022-11-03T08:17:37.371Z,1013.55
2022-11-03T08:18:41.543Z,1013.55
2022-11-03T08:19:45.770Z,1013.54
2022-11-03T08:20:50.082Z,1013.54
2022-11-03T08:21:54.279Z,1013.54
2022-11-03T08:23:20.080Z,1013.52
2022-11-03T08:24:02.871Z,1013.48
2022-11-03T08:25:07.078Z,1013.48
2022-11-03T08:26:11.289Z,1013.44
2022-11-03T08:27:15.623Z,1013.46
2022-11-03T08:28:19.877Z,1013.45
2022-11-03T08:29:24.078Z,1013.43
2022-11-03T08:30:28.321Z,1013.42
2022-11-03T08:31:32.615Z,1013.37
2022-11-03T08:32:36.799Z,1013.35
2022-11-03T08:33:41.055Z,1013.33
2022-11-03T08:34:45.327Z,1013.33
2022-11-03T08:35:49.412Z,1013.29
2022-11-03T08:36:53.763Z,1013.29
2022-11-03T08:37:57.973Z,1013.27
2022-11-03T08:39:02.302Z,1013.25
2022-11-03T08:40:06.486Z,1013.27
2022-11-03T08:41:10.713Z,1013.29
2022-11-03T08:42:15.027Z,1013.28
2022-11-03T08:43:19.212Z,1013.28
2022-11-03T08:44:23.580Z,1013.28
2022-11-03T08:45:27.735Z,1013.25
2022-11-03T08:46:31.940Z,1013.20
2022-11-03T08:47:36.198Z,1013.16
2022-11-03T08:48:40.571Z,1013.18
2022-11-03T08:49:44.729Z,1013.11
2022-11-03T08:50:48.991Z,1013.10
2022-11-03T08:51:53.234Z,1013.08
2022-11-03T08:52:57.463Z,1013.07
2022-11-03T08:54:01.655Z,1013.04
2022-11-03T08:55:05.916Z,1013.03
2022-11-03T08:56:12.581Z,1013.02
2022-11-03T08:57:14.474Z,1013.01
2022-11-03T08:58:19.758Z,1012.99
2022-11-03T08:59:23.634Z,1012.95
2022-11-03T09:00:27.930Z,1012.94
2022-11-03T09:01:32.207Z,1012.94
2022-11-03T09:02:36.513Z,1012.94
2022-11-03T09:03:40.814Z,1012.95
2022-11-03T09:04:44.897Z,1012.94
2022-11-03T09:05:49.124Z,1012.95
2022-11-03T09:06:53.379Z,1012.91
2022-11-03T09:10:23.439Z,1012.83
2022-11-03T09:11:10.379Z,1012.83
2022-11-03T09:12:14.756Z,1012.81
2022-11-03T09:13:18.872Z,1012.76
2022-11-03T09:14:23.110Z,1012.75
2022-11-03T09:15:27.329Z,1012.74
2022-11-03T09:16:31.625Z,1012.72
2022-11-03T09:17:35.852Z,1012.72
2022-11-03T09:18:40.110Z,1012.69
2022-11-03T09:19:44.430Z,1012.70
2022-11-03T09:20:48.641Z,1012.69
2022-11-03T09:21:52.881Z,1012.66
2022-11-03T09:22:57.197Z,1012.66
2022-11-03T09:24:01.433Z,1012.65
2022-11-03T09:25:05.650Z,1012.68
2022-11-03T09:26:09.970Z,1012.64
2022-11-03T09:27:14.211Z,1012.63
2022-11-03T09:28:18.487Z,1012.60
2022-11-03T09:29:22.736Z,1012.59
2022-11-03T09:30:27.021Z,1012.59
2022-11-03T09:31:31.311Z,1012.56
2022-11-03T09:32:35.521Z,1012.52
2022-11-03T09:33:39.775Z,1012.50
2022-11-03T09:34:44.002Z,1012.50
2022-11-03T09:35:48.264Z,1012.45
2022-11-03T09:36:53.404Z,1012.45
2022-11-03T09:37:56.812Z,1012.43
2022-11-03T09:39:01.091Z,1012.43
2022-11-03T09:40:05.332Z,1012.42
2022-11-03T09:41:19.002Z,1012.42
2022-11-03T09:42:13.784Z,1012.42
2022-11-03T09:43:18.021Z,1012.38
2022-11-03T09:44:22.278Z,1012.38
2022-11-03T09:45:26.604Z,1012.34
2022-11-03T09:46:30.842Z,1012.31
2022-11-03T09:47:35.042Z,1012.31
2022-11-03T09:48:39.321Z,1012.31
2022-11-03T09:49:43.720Z,1012.30
2022-11-03T09:50:47.875Z,1012.28
2022-11-03T09:51:52.202Z,1012.26
2022-11-03T09:52:56.361Z,1012.27
2022-11-03T09:54:00.608Z,1012.22
2022-11-03T09:55:04.894Z,1012.18
2022-11-03T09:56:09.114Z,1012.20
2022-11-03T09:57:13.392Z,1012.18
2022-11-03T09:58:17.638Z,1012.17
2022-11-03T09:59:21.884Z,1012.17
2022-11-03T10:00:26.153Z,1012.17
2022-11-03T10:01:30.667Z,1012.16
2022-11-03T10:02:34.747Z,1012.15
2022-11-03T10:03:38.933Z,1012.11
2022-11-03T10:04:43.241Z,1012.10
2022-11-03T10:05:47.543Z,1012.07
2022-11-03T10:06:51.709Z,1012.07
2022-11-03T10:07:55.945Z,1012.06
2022-11-03T10:09:00.206Z,1012.08
2022-11-03T10:10:04.435Z,1012.05
2022-11-03T10:11:08.714Z,1012.06
2022-11-03T10:12:13.027Z,1012.05
2022-11-03T10:13:17.188Z,1012.05
2022-11-03T10:14:21.461Z,1012.03
2022-11-03T10:15:25.777Z,1012.01
2022-11-03T10:16:30.073Z,1012.01
2022-11-03T10:17:34.348Z,1012.01
2022-11-03T10:18:38.666Z,1011.99
2022-11-03T10:19:42.857Z,1012.02
2022-11-03T10:20:47.100Z,1011.98
2022-11-03T10:21:51.324Z,1011.99
2022-11-03T10:22:55.673Z,1011.97
2022-11-03T10:23:59.877Z,1011.95
2022-11-03T10:25:04.236Z,1011.94
2022-11-03T10:26:08.410Z,1011.93
2022-11-03T10:27:12.683Z,1011.94
2022-11-03T10:28:16.922Z,1011.91
2022-11-03T10:29:21.178Z,1011.90
2022-11-03T10:30:25.504Z,1011.91
2022-11-03T10:31:29.742Z,1011.88
2022-11-03T10:32:34.064Z,1011.88
2022-11-03T10:33:38.284Z,1011.86
2022-11-03T10:34:42.528Z,1011.83
2022-11-03T10:35:46.871Z,1011.81
2022-11-03T10:36:51.242Z,1011.80
2022-11-03T10:37:55.416Z,1011.80
2022-11-03T10:38:59.798Z,1011.81
2022-11-03T10:40:06.937Z,1011.78
2022-11-03T10:41:08.400Z,1011.77
2022-11-03T10:42:12.736Z,1011.77
2022-11-03T10:43:16.946Z,1011.77
2022-11-03T10:44:21.191Z,1011.76
2022-11-03T10:45:25.566Z,1011.75
2022-11-03T10:46:49.191Z,1011.74
2022-11-03T10:47:34.023Z,1011.71
2022-11-03T10:48:38.371Z,1011.71
2022-11-03T10:49:44.000Z,1011.71
2022-11-03T10:50:46.885Z,1011.69
2022-11-03T10:51:51.116Z,1011.67
2022-11-03T10:52:55.412Z,1011.65
2022-11-03T10:53:59.593Z,1011.67
2022-11-03T10:55:03.871Z,1011.68
2022-11-03T10:56:08.227Z,1011.64
2022-11-03T10:57:12.528Z,1011.63
2022-11-03T10:58:16.844Z,1011.62
2022-11-03T10:59:21.140Z,1011.64
2022-11-03T11:00:25.390Z,1011.65
2022-11-03T11:01:29.832Z,1011.65
2022-11-03T11:02:33.970Z,1011.62
2022-11-03T11:03:38.251Z,1011.63
2022-11-03T11:04:42.581Z,1011.62
2022-11-03T11:05:46.739Z,1011.60
2022-11-03T11:06:50.990Z,1011.62
2022-11-03T11:07:55.467Z,1011.62
2022-11-03T11:09:00.188Z,1011.60
2022-11-03T11:10:03.834Z,1011.61
2022-11-03T11:11:08.149Z,1011.59
2022-11-03T11:12:12.304Z,1011.58
2022-11-03T11:13:16.588Z,1011.53
2022-11-03T11:14:20.794Z,1011.54
2022-11-03T11:15:25.101Z,1011.52
2022-11-03T11:16:29.320Z,1011.49
2022-11-03T11:17:33.664Z,1011.48
2022-11-03T11:18:37.876Z,1011.47
2022-11-03T11:19:42.165Z,1011.49
2022-11-03T11:20:46.436Z,1011.45
2022-11-03T11:21:50.672Z,1011.42
2022-11-03T11:22:58.028Z,1011.40
2022-11-03T11:24:01.307Z,1011.39
2022-11-03T11:25:05.578Z,1011.38
2022-11-03T11:26:09.894Z,1011.37
2022-11-03T11:27:14.080Z,1011.35
2022-11-03T11:28:18.326Z,1011.35
2022-11-03T11:29:22.739Z,1011.34
2022-11-03T11:30:26.907Z,1011.32
2022-11-03T11:31:31.308Z,1011.28
2022-11-03T11:32:35.598Z,1011.29
2022-11-03T11:33:39.935Z,1011.30
2022-11-03T11:34:44.224Z,1011.27
2022-11-03T11:35:48.474Z,1011.26
2022-11-03T11:36:52.684Z,1011.24
2022-11-03T11:37:56.932Z,1011.21
2022-11-03T11:39:01.109Z,1011.19
2022-11-03T11:40:05.423Z,1011.17
2022-11-03T11:41:09.814Z,1011.15
2022-11-03T11:42:14.206Z,1011.19
2022-11-03T11:43:18.265Z,1011.16
2022-11-03T11:44:22.527Z,1011.13
2022-11-03T11:45:26.801Z,1011.13
2022-11-03T11:46:31.073Z,1011.10
2022-11-03T11:47:35.439Z,1011.07
2022-11-03T11:48:39.656Z,1011.05
2022-11-03T11:49:43.942Z,1010.99
2022-11-03T11:50:48.200Z,1010.97
2022-11-03T11:51:52.467Z,1010.96
2022-11-03T11:52:56.729Z,1010.93
2022-11-03T11:54:17.033Z,1010.92
2022-11-03T11:55:05.342Z,1010.88
2022-11-03T11:56:09.668Z,1010.89
2022-11-03T11:57:13.871Z,1010.85
2022-11-03T11:58:18.188Z,1010.84
2022-11-03T11:59:25.181Z,1010.77
2022-11-03T12:00:26.800Z,1010.76
2022-11-03T12:01:31.207Z,1010.75
2022-11-03T12:02:35.347Z,1010.72
2022-11-03T12:03:39.766Z,1010.68
2022-11-03T12:04:43.953Z,1010.66
2022-11-03T12:05:48.311Z,1010.62
2022-11-03T12:06:52.475Z,1010.62
2022-11-03T12:07:56.740Z,1010.61
2022-11-03T12:09:01.018Z,1010.57
2022-11-03T12:10:05.382Z,1010.57
2022-11-03T12:11:09.752Z,1010.53
2022-11-03T12:12:13.941Z,1010.54
2022-11-03T12:13:18.344Z,1010.54
2022-11-03T12:14:22.529Z,1010.55
2022-11-03T12:15:26.914Z,1010.54
2022-11-03T12:16:31.133Z,1010.55
2022-11-03T12:17:35.511Z,1010.60
2022-11-03T12:18:43.587Z,1010.59
2022-11-03T12:19:44.016Z,1010.54
2022-11-03T12:20:48.278Z,1010.56
2022-11-03T12:21:52.566Z,1010.51
2022-11-03T12:22:56.847Z,1010.52
2022-11-03T12:24:01.156Z,1010.51
2022-11-03T12:25:05.483Z,1010.49
2022-11-03T12:26:09.802Z,1010.46
2022-11-03T12:27:14.110Z,1010.48
2022-11-03T12:28:18.312Z,1010.45
2022-11-03T12:29:22.732Z,1010.41
2022-11-03T12:30:26.948Z,1010.38
2022-11-03T12:31:33.122Z,1010.36
2022-11-03T12:32:35.827Z,1010.33
2022-11-03T12:33:39.824Z,1010.32
2022-11-03T12:34:44.195Z,1010.33
2022-11-03T12:35:48.525Z,1010.31
2022-11-03T12:36:56.219Z,1010.28
2022-11-03T12:37:57.118Z,1010.25
2022-11-03T12:39:01.489Z,1010.27
2022-11-03T12:40:05.792Z,1010.19
2022-11-03T12:41:10.159Z,1010.23
2022-11-03T12:42:14.477Z,1010.21
2022-11-03T12:43:18.663Z,1010.22
2022-11-03T12:44:23.046Z,1010.22
2022-11-03T12:45:27.369Z,1010.19
2022-11-03T12:46:31.563Z,1010.20
2022-11-03T12:47:35.925Z,1010.17
2022-11-03T12:48:40.238Z,1010.14
2022-11-03T12:49:44.581Z,1010.12
2022-11-03T12:50:48.824Z,1010.09
2022-11-03T12:51:53.186Z,1010.06
2022-11-03T12:52:57.536Z,1009.99
2022-11-03T12:54:01.858Z,1009.93
2022-11-03T12:55:06.166Z,1009.90
2022-11-03T12:56:10.504Z,1009.90
2022-11-03T12:57:14.791Z,1009.85
2022-11-03T12:58:19.141Z,1009.83
2022-11-03T12:59:23.356Z,1009.85
2022-11-03T13:00:27.640Z,1009.84
2022-11-03T13:01:38.276Z,1009.77